sensor_id;sensor_type;location;lat;lon;timestamp;temperature;humidity
31133;DHT22;17779;50.942;4.026;2022-11-11T00:01:26;10.90;99.90
31133;DHT22;17779;50.942;4.026;2022-11-11T00:03:54;10.90;99.90
31133;DHT22;17779;50.942;4.026;2022-11-11T00:06:20;10.90;99.90
31133;DHT22;17779;50.942;4.026;2022-11-11T00:08:46;10.90;99.90
31133;DHT22;17779;50.942;4.026;2022-11-11T00:11:13;10.90;99.90
31133;DHT22;17779;50.942;4.026;2022-11-11T00:13:39;10.90;99.90
31133;DHT22;17779;50.942;4.026;2022-11-11T00:18:31;10.80;99.90
31133;DHT22;17779;50.942;4.026;2022-11-11T00:21:15;10.80;99.90
31133;DHT22;17779;50.942;4.026;2022-11-11T00:24:00;10.80;99.90
31133;DHT22;17779;50.942;4.026;2022-11-11T00:26:44;10.80;99.90
31133;DHT22;17779;50.942;4.026;2022-11-11T00:29:10;10.90;99.90
31133;DHT22;17779;50.942;4.026;2022-11-11T00:31:35;10.90;99.90
31133;DHT22;17779;50.942;4.026;2022-11-11T00:34:21;10.90;99.90
31133;DHT22;17779;50.942;4.026;2022-11-11T00:36:46;10.90;99.90
31133;DHT22;17779;50.942;4.026;2022-11-11T00:39:12;11.00;99.90
31133;DHT22;17779;50.942;4.026;2022-11-11T00:41:37;10.90;99.90
31133;DHT22;17779;50.942;4.026;2022-11-11T00:44:03;10.90;99.90
31133;DHT22;17779;50.942;4.026;2022-11-11T00:46:29;10.80;99.90
31133;DHT22;17779;50.942;4.026;2022-11-11T00:49:13;10.80;99.90
31133;DHT22;17779;50.942;4.026;2022-11-11T00:51:57;10.80;99.90
31133;DHT22;17779;50.942;4.026;2022-11-11T00:54:23;10.90;99.90
31133;DHT22;17779;50.942;4.026;2022-11-11T00:56:48;10.90;99.90
31133;DHT22;17779;50.942;4.026;2022-11-11T00:59:14;10.90;99.90
31133;DHT22;17779;50.942;4.026;2022-11-11T01:01:39;10.80;99.90
31133;DHT22;17779;50.942;4.026;2022-11-11T01:04:05;10.80;99.90
31133;DHT22;17779;50.942;4.026;2022-11-11T01:06:31;10.80;99.90
31133;DHT22;17779;50.942;4.026;2022-11-11T01:08:56;10.80;99.90
31133;DHT22;17779;50.942;4.026;2022-11-11T01:11:22;10.80;99.90
31133;DHT22;17779;50.942;4.026;2022-11-11T01:13:48;10.80;99.90
31133;DHT22;17779;50.942;4.026;2022-11-11T01:16:16;10.80;99.90
31133;DHT22;17779;50.942;4.026;2022-11-11T01:18:42;10.80;99.90
31133;DHT22;17779;50.942;4.026;2022-11-11T01:21:13;10.70;99.90
31133;DHT22;17779;50.942;4.026;2022-11-11T01:23:39;10.70;99.90
31133;DHT22;17779;50.942;4.026;2022-11-11T01:26:13;10.90;99.90
31133;DHT22;17779;50.942;4.026;2022-11-11T01:28:39;10.80;99.90
31133;DHT22;17779;50.942;4.026;2022-11-11T01:31:06;10.80;99.90
31133;DHT22;17779;50.942;4.026;2022-11-11T01:33:32;10.80;99.90
31133;DHT22;17779;50.942;4.026;2022-11-11T01:36:03;10.70;99.90
31133;DHT22;17779;50.942;4.026;2022-11-11T01:38:28;10.70;99.90
31133;DHT22;17779;50.942;4.026;2022-11-11T01:40:54;10.70;99.90
31133;DHT22;17779;50.942;4.026;2022-11-11T01:43:21;10.70;99.90
31133;DHT22;17779;50.942;4.026;2022-11-11T01:45:52;10.80;99.90
31133;DHT22;17779;50.942;4.026;2022-11-11T01:48:21;10.70;99.90
31133;DHT22;17779;50.942;4.026;2022-11-11T01:51:09;10.70;99.90
31133;DHT22;17779;50.942;4.026;2022-11-11T01:53:36;10.70;99.90
31133;DHT22;17779;50.942;4.026;2022-11-11T01:56:02;10.70;99.90
31133;DHT22;17779;50.942;4.026;2022-11-11T01:58:28;10.70;99.90
31133;DHT22;17779;50.942;4.026;2022-11-11T02:00:54;10.70;99.90
31133;DHT22;17779;50.942;4.026;2022-11-11T02:03:20;10.70;99.90
31133;DHT22;17779;50.942;4.026;2022-11-11T02:05:50;10.60;99.90
31133;DHT22;17779;50.942;4.026;2022-11-11T02:08:21;10.60;99.90
31133;DHT22;17779;50.942;4.026;2022-11-11T02:11:02;10.60;99.90
31133;DHT22;17779;50.942;4.026;2022-11-11T02:13:29;10.50;99.90
31133;DHT22;17779;50.942;4.026;2022-11-11T02:16:13;10.60;99.90
31133;DHT22;17779;50.942;4.026;2022-11-11T02:18:39;10.50;99.90
31133;DHT22;17779;50.942;4.026;2022-11-11T02:21:05;10.50;99.90
31133;DHT22;17779;50.942;4.026;2022-11-11T02:23:38;10.40;99.90
31133;DHT22;17779;50.942;4.026;2022-11-11T02:26:06;10.40;99.90
31133;DHT22;17779;50.942;4.026;2022-11-11T02:28:34;10.50;99.90
31133;DHT22;17779;50.942;4.026;2022-11-11T02:31:01;10.50;99.90
31133;DHT22;17779;50.942;4.026;2022-11-11T02:33:27;10.40;99.90
31133;DHT22;17779;50.942;4.026;2022-11-11T02:35:54;10.40;99.90
31133;DHT22;17779;50.942;4.026;2022-11-11T02:38:21;10.40;99.90
31133;DHT22;17779;50.942;4.026;2022-11-11T02:40:47;10.50;99.90
31133;DHT22;17779;50.942;4.026;2022-11-11T02:43:31;10.50;99.90
31133;DHT22;17779;50.942;4.026;2022-11-11T02:45:57;10.40;99.90
31133;DHT22;17779;50.942;4.026;2022-11-11T02:48:24;10.40;99.90
31133;DHT22;17779;50.942;4.026;2022-11-11T02:50:49;10.40;99.90
31133;DHT22;17779;50.942;4.026;2022-11-11T02:53:16;10.30;99.90
31133;DHT22;17779;50.942;4.026;2022-11-11T02:55:42;10.30;99.90
31133;DHT22;17779;50.942;4.026;2022-11-11T02:58:07;10.30;99.90
31133;DHT22;17779;50.942;4.026;2022-11-11T03:00:33;10.30;99.90
31133;DHT22;17779;50.942;4.026;2022-11-11T03:03:00;10.40;99.90
31133;DHT22;17779;50.942;4.026;2022-11-11T03:05:25;10.30;99.90
31133;DHT22;17779;50.942;4.026;2022-11-11T03:07:51;10.30;99.90
31133;DHT22;17779;50.942;4.026;2022-11-11T03:10:16;10.30;99.90
31133;DHT22;17779;50.942;4.026;2022-11-11T03:12:42;10.30;99.90
31133;DHT22;17779;50.942;4.026;2022-11-11T03:15:07;10.30;99.90
31133;DHT22;17779;50.942;4.026;2022-11-11T03:17:33;10.20;99.90
31133;DHT22;17779;50.942;4.026;2022-11-11T03:20:06;10.20;99.90
31133;DHT22;17779;50.942;4.026;2022-11-11T03:23:01;10.20;99.90
31133;DHT22;17779;50.942;4.026;2022-11-11T03:25:27;10.20;99.90
31133;DHT22;17779;50.942;4.026;2022-11-11T03:28:09;10.20;99.90
31133;DHT22;17779;50.942;4.026;2022-11-11T03:30:35;10.30;99.90
31133;DHT22;17779;50.942;4.026;2022-11-11T03:33:01;10.40;99.90
31133;DHT22;17779;50.942;4.026;2022-11-11T03:35:27;10.50;99.90
31133;DHT22;17779;50.942;4.026;2022-11-11T03:37:53;10.50;99.90
31133;DHT22;17779;50.942;4.026;2022-11-11T03:40:37;10.30;99.90
31133;DHT22;17779;50.942;4.026;2022-11-11T03:43:03;10.30;99.90
31133;DHT22;17779;50.942;4.026;2022-11-11T03:45:29;10.30;99.90
31133;DHT22;17779;50.942;4.026;2022-11-11T03:47:54;10.30;99.90
31133;DHT22;17779;50.942;4.026;2022-11-11T03:50:20;10.20;99.90
31133;DHT22;17779;50.942;4.026;2022-11-11T03:52:48;10.10;99.90
31133;DHT22;17779;50.942;4.026;2022-11-11T03:55:13;10.10;99.90
31133;DHT22;17779;50.942;4.026;2022-11-11T03:57:43;10.20;99.90
31133;DHT22;17779;50.942;4.026;2022-11-11T04:00:10;10.20;99.90
31133;DHT22;17779;50.942;4.026;2022-11-11T04:02:36;10.20;99.90
31133;DHT22;17779;50.942;4.026;2022-11-11T04:05:20;10.20;99.90
31133;DHT22;17779;50.942;4.026;2022-11-11T04:08:10;10.10;99.90
31133;DHT22;17779;50.942;4.026;2022-11-11T04:10:54;10.10;99.90
31133;DHT22;17779;50.942;4.026;2022-11-11T04:13:20;10.10;99.90
31133;DHT22;17779;50.942;4.026;2022-11-11T04:16:04;10.00;99.90
31133;DHT22;17779;50.942;4.026;2022-11-11T04:18:33;10.10;99.90
31133;DHT22;17779;50.942;4.026;2022-11-11T04:21:17;10.10;99.90
31133;DHT22;17779;50.942;4.026;2022-11-11T04:24:02;10.00;99.90
31133;DHT22;17779;50.942;4.026;2022-11-11T04:26:27;10.00;99.90
31133;DHT22;17779;50.942;4.026;2022-11-11T04:28:53;10.00;99.90
31133;DHT22;17779;50.942;4.026;2022-11-11T04:31:37;9.90;99.90
31133;DHT22;17779;50.942;4.026;2022-11-11T04:34:27;9.90;99.90
31133;DHT22;17779;50.942;4.026;2022-11-11T04:36:52;10.00;99.90
31133;DHT22;17779;50.942;4.026;2022-11-11T04:39:18;9.90;99.90
31133;DHT22;17779;50.942;4.026;2022-11-11T04:42:02;9.90;99.90
31133;DHT22;17779;50.942;4.026;2022-11-11T04:44:28;9.90;99.90
31133;DHT22;17779;50.942;4.026;2022-11-11T04:47:12;9.90;99.90
31133;DHT22;17779;50.942;4.026;2022-11-11T04:49:37;9.80;99.90
31133;DHT22;17779;50.942;4.026;2022-11-11T04:52:03;9.80;99.90
31133;DHT22;17779;50.942;4.026;2022-11-11T04:54:47;9.80;99.90
31133;DHT22;17779;50.942;4.026;2022-11-11T04:57:32;9.80;99.90
31133;DHT22;17779;50.942;4.026;2022-11-11T04:59:57;9.80;99.90
31133;DHT22;17779;50.942;4.026;2022-11-11T05:02:23;9.70;99.90
31133;DHT22;17779;50.942;4.026;2022-11-11T05:05:07;9.70;99.90
31133;DHT22;17779;50.942;4.026;2022-11-11T05:07:32;9.70;99.90
31133;DHT22;17779;50.942;4.026;2022-11-11T05:10:17;9.70;99.90
31133;DHT22;17779;50.942;4.026;2022-11-11T05:12:45;9.80;99.90
31133;DHT22;17779;50.942;4.026;2022-11-11T05:15:11;9.70;99.90
31133;DHT22;17779;50.942;4.026;2022-11-11T05:17:55;9.60;99.90
31133;DHT22;17779;50.942;4.026;2022-11-11T05:20:39;9.60;99.90
31133;DHT22;17779;50.942;4.026;2022-11-11T05:23:23;9.60;99.90
31133;DHT22;17779;50.942;4.026;2022-11-11T05:26:09;9.60;99.90
31133;DHT22;17779;50.942;4.026;2022-11-11T05:28:34;9.60;99.90
31133;DHT22;17779;50.942;4.026;2022-11-11T05:31:00;9.70;99.90
31133;DHT22;17779;50.942;4.026;2022-11-11T05:33:25;9.70;99.90
31133;DHT22;17779;50.942;4.026;2022-11-11T05:35:51;9.80;99.90
31133;DHT22;17779;50.942;4.026;2022-11-11T05:38:16;9.80;99.90
31133;DHT22;17779;50.942;4.026;2022-11-11T05:40:45;9.80;99.90
31133;DHT22;17779;50.942;4.026;2022-11-11T05:43:11;9.70;99.90
31133;DHT22;17779;50.942;4.026;2022-11-11T05:45:36;9.70;99.90
31133;DHT22;17779;50.942;4.026;2022-11-11T05:48:02;9.70;99.90
31133;DHT22;17779;50.942;4.026;2022-11-11T05:50:28;9.70;99.90
31133;DHT22;17779;50.942;4.026;2022-11-11T05:52:53;9.60;99.90
31133;DHT22;17779;50.942;4.026;2022-11-11T05:55:20;9.70;99.90
31133;DHT22;17779;50.942;4.026;2022-11-11T05:57:46;9.60;99.90
31133;DHT22;17779;50.942;4.026;2022-11-11T06:00:11;9.60;99.90
31133;DHT22;17779;50.942;4.026;2022-11-11T06:02:37;9.60;99.90
31133;DHT22;17779;50.942;4.026;2022-11-11T06:05:03;9.70;99.90
31133;DHT22;17779;50.942;4.026;2022-11-11T06:07:29;9.70;99.90
31133;DHT22;17779;50.942;4.026;2022-11-11T06:09:55;9.60;99.90
31133;DHT22;17779;50.942;4.026;2022-11-11T06:12:41;9.60;99.90
31133;DHT22;17779;50.942;4.026;2022-11-11T06:15:30;9.60;99.90
31133;DHT22;17779;50.942;4.026;2022-11-11T06:17:56;9.50;99.90
31133;DHT22;17779;50.942;4.026;2022-11-11T06:20:21;9.40;99.90
31133;DHT22;17779;50.942;4.026;2022-11-11T06:22:47;9.40;99.90
31133;DHT22;17779;50.942;4.026;2022-11-11T06:25:24;9.40;99.90
31133;DHT22;17779;50.942;4.026;2022-11-11T06:28:29;9.40;99.90
31133;DHT22;17779;50.942;4.026;2022-11-11T06:30:54;9.30;99.90
31133;DHT22;17779;50.942;4.026;2022-11-11T06:33:20;9.20;99.90
31133;DHT22;17779;50.942;4.026;2022-11-11T06:35:46;9.20;99.90
31133;DHT22;17779;50.942;4.026;2022-11-11T06:38:12;9.20;99.90
31133;DHT22;17779;50.942;4.026;2022-11-11T06:40:37;9.30;99.90
31133;DHT22;17779;50.942;4.026;2022-11-11T06:43:03;9.30;99.90
31133;DHT22;17779;50.942;4.026;2022-11-11T06:45:29;9.30;99.90
31133;DHT22;17779;50.942;4.026;2022-11-11T06:47:55;9.30;99.90
31133;DHT22;17779;50.942;4.026;2022-11-11T06:50:21;9.30;99.90
31133;DHT22;17779;50.942;4.026;2022-11-11T06:52:47;9.30;99.90
31133;DHT22;17779;50.942;4.026;2022-11-11T06:55:13;9.30;99.90
31133;DHT22;17779;50.942;4.026;2022-11-11T06:57:38;9.30;99.90
31133;DHT22;17779;50.942;4.026;2022-11-11T07:00:04;9.20;99.90
31133;DHT22;17779;50.942;4.026;2022-11-11T07:02:30;9.30;99.90
31133;DHT22;17779;50.942;4.026;2022-11-11T07:04:56;9.30;99.90
31133;DHT22;17779;50.942;4.026;2022-11-11T07:07:21;9.30;99.90
31133;DHT22;17779;50.942;4.026;2022-11-11T07:09:47;9.40;99.90
31133;DHT22;17779;50.942;4.026;2022-11-11T07:12:13;9.40;99.90
31133;DHT22;17779;50.942;4.026;2022-11-11T07:14:38;9.30;99.90
31133;DHT22;17779;50.942;4.026;2022-11-11T07:17:04;9.30;99.90
31133;DHT22;17779;50.942;4.026;2022-11-11T07:19:30;9.30;99.90
31133;DHT22;17779;50.942;4.026;2022-11-11T07:21:55;9.30;99.90
31133;DHT22;17779;50.942;4.026;2022-11-11T07:24:21;9.30;99.90
31133;DHT22;17779;50.942;4.026;2022-11-11T07:26:47;9.40;99.90
31133;DHT22;17779;50.942;4.026;2022-11-11T07:29:12;9.30;99.90
31133;DHT22;17779;50.942;4.026;2022-11-11T07:31:40;9.30;99.90
31133;DHT22;17779;50.942;4.026;2022-11-11T07:34:06;9.30;99.90
31133;DHT22;17779;50.942;4.026;2022-11-11T07:36:32;9.30;99.90
31133;DHT22;17779;50.942;4.026;2022-11-11T07:38:57;9.40;99.90
31133;DHT22;17779;50.942;4.026;2022-11-11T07:41:23;9.40;99.90
31133;DHT22;17779;50.942;4.026;2022-11-11T07:43:49;9.50;99.90
31133;DHT22;17779;50.942;4.026;2022-11-11T07:46:14;9.50;99.90
31133;DHT22;17779;50.942;4.026;2022-11-11T07:48:40;9.50;99.90
31133;DHT22;17779;50.942;4.026;2022-11-11T07:51:05;9.50;99.90
31133;DHT22;17779;50.942;4.026;2022-11-11T07:53:31;9.50;99.90
31133;DHT22;17779;50.942;4.026;2022-11-11T07:55:57;9.50;99.90
31133;DHT22;17779;50.942;4.026;2022-11-11T07:58:23;9.50;99.90
31133;DHT22;17779;50.942;4.026;2022-11-11T08:00:49;9.50;99.90
31133;DHT22;17779;50.942;4.026;2022-11-11T08:03:14;9.60;99.90
31133;DHT22;17779;50.942;4.026;2022-11-11T08:05:41;9.70;99.90
31133;DHT22;17779;50.942;4.026;2022-11-11T08:08:07;9.60;99.90
31133;DHT22;17779;50.942;4.026;2022-11-11T08:10:33;9.70;99.90
31133;DHT22;17779;50.942;4.026;2022-11-11T08:12:59;9.60;99.90
31133;DHT22;17779;50.942;4.026;2022-11-11T08:15:44;9.60;99.90
31133;DHT22;17779;50.942;4.026;2022-11-11T08:18:09;9.60;99.90
31133;DHT22;17779;50.942;4.026;2022-11-11T08:20:35;9.60;99.90
31133;DHT22;17779;50.942;4.026;2022-11-11T08:23:01;9.70;99.90
31133;DHT22;17779;50.942;4.026;2022-11-11T08:25:29;9.70;99.90
31133;DHT22;17779;50.942;4.026;2022-11-11T08:27:55;9.90;99.90
31133;DHT22;17779;50.942;4.026;2022-11-11T08:30:21;9.90;99.90
31133;DHT22;17779;50.942;4.026;2022-11-11T08:32:47;10.00;99.90
31133;DHT22;17779;50.942;4.026;2022-11-11T08:35:12;10.10;99.90
31133;DHT22;17779;50.942;4.026;2022-11-11T08:37:38;9.90;99.90
31133;DHT22;17779;50.942;4.026;2022-11-11T08:40:04;9.90;99.90
31133;DHT22;17779;50.942;4.026;2022-11-11T08:42:31;9.90;99.90
31133;DHT22;17779;50.942;4.026;2022-11-11T08:44:57;10.00;99.90
31133;DHT22;17779;50.942;4.026;2022-11-11T08:47:22;10.10;99.90
31133;DHT22;17779;50.942;4.026;2022-11-11T08:49:49;10.10;99.90
31133;DHT22;17779;50.942;4.026;2022-11-11T08:52:15;10.10;99.90
31133;DHT22;17779;50.942;4.026;2022-11-11T08:54:41;10.00;99.90
31133;DHT22;17779;50.942;4.026;2022-11-11T08:57:06;10.00;99.90
31133;DHT22;17779;50.942;4.026;2022-11-11T08:59:32;10.20;99.90
31133;DHT22;17779;50.942;4.026;2022-11-11T09:01:58;10.30;99.90
31133;DHT22;17779;50.942;4.026;2022-11-11T09:04:23;10.30;99.90
31133;DHT22;17779;50.942;4.026;2022-11-11T09:06:49;10.40;99.90
31133;DHT22;17779;50.942;4.026;2022-11-11T09:09:16;10.60;99.90
31133;DHT22;17779;50.942;4.026;2022-11-11T09:11:42;10.70;99.90
31133;DHT22;17779;50.942;4.026;2022-11-11T09:14:07;11.10;99.90
31133;DHT22;17779;50.942;4.026;2022-11-11T09:16:33;11.70;99.90
31133;DHT22;17779;50.942;4.026;2022-11-11T09:18:58;12.10;99.90
31133;DHT22;17779;50.942;4.026;2022-11-11T09:21:24;12.10;99.90
31133;DHT22;17779;50.942;4.026;2022-11-11T09:23:50;12.40;99.90
31133;DHT22;17779;50.942;4.026;2022-11-11T09:26:16;12.90;99.90
31133;DHT22;17779;50.942;4.026;2022-11-11T09:28:42;14.30;99.90
31133;DHT22;17779;50.942;4.026;2022-11-11T09:31:07;14.40;99.90
31133;DHT22;17779;50.942;4.026;2022-11-11T09:33:33;14.30;99.90
31133;DHT22;17779;50.942;4.026;2022-11-11T09:35:58;14.80;99.90
31133;DHT22;17779;50.942;4.026;2022-11-11T09:38:24;15.80;99.90
31133;DHT22;17779;50.942;4.026;2022-11-11T09:43:34;15.30;99.90
31133;DHT22;17779;50.942;4.026;2022-11-11T09:51:04;17.00;99.90
31133;DHT22;17779;50.942;4.026;2022-11-11T09:53:34;16.70;99.90
31133;DHT22;17779;50.942;4.026;2022-11-11T09:56:06;16.10;99.90
31133;DHT22;17779;50.942;4.026;2022-11-11T09:58:40;16.30;99.90
31133;DHT22;17779;50.942;4.026;2022-11-11T10:01:15;16.80;99.90
31133;DHT22;17779;50.942;4.026;2022-11-11T10:03:44;16.50;99.90
31133;DHT22;17779;50.942;4.026;2022-11-11T10:08:41;17.10;99.90
31133;DHT22;17779;50.942;4.026;2022-11-11T10:11:12;18.00;99.90
31133;DHT22;17779;50.942;4.026;2022-11-11T10:13:39;18.30;99.90
31133;DHT22;17779;50.942;4.026;2022-11-11T10:19:07;17.40;99.90
31133;DHT22;17779;50.942;4.026;2022-11-11T10:24:04;18.40;99.90
31133;DHT22;17779;50.942;4.026;2022-11-11T10:26:38;18.30;99.90
31133;DHT22;17779;50.942;4.026;2022-11-11T10:29:06;18.20;99.90
31133;DHT22;17779;50.942;4.026;2022-11-11T10:31:33;18.00;99.90
31133;DHT22;17779;50.942;4.026;2022-11-11T10:34:01;17.50;99.90
31133;DHT22;17779;50.942;4.026;2022-11-11T10:36:28;16.80;99.90
31133;DHT22;17779;50.942;4.026;2022-11-11T10:38:57;16.90;99.90
31133;DHT22;17779;50.942;4.026;2022-11-11T10:43:51;16.60;99.90
31133;DHT22;17779;50.942;4.026;2022-11-11T10:46:21;16.70;99.90
31133;DHT22;17779;50.942;4.026;2022-11-11T10:49:14;16.60;99.90
31133;DHT22;17779;50.942;4.026;2022-11-11T10:51:59;16.50;99.90
31133;DHT22;17779;50.942;4.026;2022-11-11T10:54:32;16.30;99.90
31133;DHT22;17779;50.942;4.026;2022-11-11T10:57:01;17.30;99.90
31133;DHT22;17779;50.942;4.026;2022-11-11T10:59:34;16.70;99.90
31133;DHT22;17779;50.942;4.026;2022-11-11T11:04:51;16.20;99.90
31133;DHT22;17779;50.942;4.026;2022-11-11T11:07:25;15.80;99.90
31133;DHT22;17779;50.942;4.026;2022-11-11T11:10:00;16.50;99.90
31133;DHT22;17779;50.942;4.026;2022-11-11T11:12:29;16.20;99.90
31133;DHT22;17779;50.942;4.026;2022-11-11T11:15:03;16.30;99.90
31133;DHT22;17779;50.942;4.026;2022-11-11T11:17:41;16.40;99.90
31133;DHT22;17779;50.942;4.026;2022-11-11T11:20:11;16.60;99.90
31133;DHT22;17779;50.942;4.026;2022-11-11T11:22:44;16.30;99.90
31133;DHT22;17779;50.942;4.026;2022-11-11T11:25:10;16.40;99.90
31133;DHT22;17779;50.942;4.026;2022-11-11T11:27:36;16.10;99.90
31133;DHT22;17779;50.942;4.026;2022-11-11T11:30:09;16.30;99.90
31133;DHT22;17779;50.942;4.026;2022-11-11T11:32:35;16.60;99.90
31133;DHT22;17779;50.942;4.026;2022-11-11T11:35:00;16.50;99.90
31133;DHT22;17779;50.942;4.026;2022-11-11T11:37:26;16.30;99.90
31133;DHT22;17779;50.942;4.026;2022-11-11T11:39:58;16.30;99.90
31133;DHT22;17779;50.942;4.026;2022-11-11T11:44:53;17.50;99.90
31133;DHT22;17779;50.942;4.026;2022-11-11T11:52:58;16.00;99.90
31133;DHT22;17779;50.942;4.026;2022-11-11T11:55:22;16.20;99.90
31133;DHT22;17779;50.942;4.026;2022-11-11T12:00:25;17.10;99.90
31133;DHT22;17779;50.942;4.026;2022-11-11T12:05:33;17.40;99.90
31133;DHT22;17779;50.942;4.026;2022-11-11T12:13:44;16.70;99.90
31133;DHT22;17779;50.942;4.026;2022-11-11T12:21:57;16.30;99.90
31133;DHT22;17779;50.942;4.026;2022-11-11T12:24:30;16.60;99.90
31133;DHT22;17779;50.942;4.026;2022-11-11T12:32:06;16.30;99.90
31133;DHT22;17779;50.942;4.026;2022-11-11T12:37:09;16.40;99.90
31133;DHT22;17779;50.942;4.026;2022-11-11T12:45:12;16.10;99.90
31133;DHT22;17779;50.942;4.026;2022-11-11T12:53:03;15.50;99.90
31133;DHT22;17779;50.942;4.026;2022-11-11T12:58:23;15.80;99.90
31133;DHT22;17779;50.942;4.026;2022-11-11T13:00:57;15.70;99.90
31133;DHT22;17779;50.942;4.026;2022-11-11T13:06:27;15.40;99.90
31133;DHT22;17779;50.942;4.026;2022-11-11T13:16:59;16.30;99.90
31133;DHT22;17779;50.942;4.026;2022-11-11T13:19:36;16.20;99.90
31133;DHT22;17779;50.942;4.026;2022-11-11T13:22:07;16.30;99.90
31133;DHT22;17779;50.942;4.026;2022-11-11T13:24:36;16.90;99.90
31133;DHT22;17779;50.942;4.026;2022-11-11T13:27:03;16.80;99.90
31133;DHT22;17779;50.942;4.026;2022-11-11T13:31:58;15.50;99.90
31133;DHT22;17779;50.942;4.026;2022-11-11T13:34:26;15.50;99.90
31133;DHT22;17779;50.942;4.026;2022-11-11T13:36:53;15.70;99.90
31133;DHT22;17779;50.942;4.026;2022-11-11T13:41:47;15.30;99.90
31133;DHT22;17779;50.942;4.026;2022-11-11T13:44:18;15.40;99.90
31133;DHT22;17779;50.942;4.026;2022-11-11T13:46:45;15.30;99.90
31133;DHT22;17779;50.942;4.026;2022-11-11T13:49:28;15.20;99.90
31133;DHT22;17779;50.942;4.026;2022-11-11T13:52:01;14.90;99.90
31133;DHT22;17779;50.942;4.026;2022-11-11T13:56:59;14.70;99.90
31133;DHT22;17779;50.942;4.026;2022-11-11T13:59:33;14.60;99.90
31133;DHT22;17779;50.942;4.026;2022-11-11T14:15:52;14.40;99.90
31133;DHT22;17779;50.942;4.026;2022-11-11T14:17:53;14.50;99.90
31133;DHT22;17779;50.942;4.026;2022-11-11T14:20:35;14.30;99.90
31133;DHT22;17779;50.942;4.026;2022-11-11T14:25:42;14.00;99.90
31133;DHT22;17779;50.942;4.026;2022-11-11T14:30:52;13.70;99.90
31133;DHT22;17779;50.942;4.026;2022-11-11T14:35:46;13.70;99.90
31133;DHT22;17779;50.942;4.026;2022-11-11T14:40:41;13.50;99.90
31133;DHT22;17779;50.942;4.026;2022-11-11T14:46:09;13.40;99.90
31133;DHT22;17779;50.942;4.026;2022-11-11T14:51:55;13.40;99.90
31133;DHT22;17779;50.942;4.026;2022-11-11T14:54:02;13.60;99.90
31133;DHT22;17779;50.942;4.026;2022-11-11T14:56:29;13.50;99.90
31133;DHT22;17779;50.942;4.026;2022-11-11T14:58:56;13.50;99.90
31133;DHT22;17779;50.942;4.026;2022-11-11T15:01:27;13.40;99.90
31133;DHT22;17779;50.942;4.026;2022-11-11T15:03:55;13.40;99.90
31133;DHT22;17779;50.942;4.026;2022-11-11T15:06:22;13.40;99.90
31133;DHT22;17779;50.942;4.026;2022-11-11T15:24:40;13.40;99.90
31133;DHT22;17779;50.942;4.026;2022-11-11T15:27:54;13.50;99.90
31133;DHT22;17779;50.942;4.026;2022-11-11T15:29:59;13.40;99.90
31133;DHT22;17779;50.942;4.026;2022-11-11T15:32:36;13.20;99.90
31133;DHT22;17779;50.942;4.026;2022-11-11T15:37:32;13.00;99.90
31133;DHT22;17779;50.942;4.026;2022-11-11T15:40:00;12.90;99.90
31133;DHT22;17779;50.942;4.026;2022-11-11T15:44:51;12.60;99.90
31133;DHT22;17779;50.942;4.026;2022-11-11T15:47:17;12.60;99.90
31133;DHT22;17779;50.942;4.026;2022-11-11T15:49:44;12.70;99.90
31133;DHT22;17779;50.942;4.026;2022-11-11T15:52:33;12.90;99.90
31133;DHT22;17779;50.942;4.026;2022-11-11T15:54:58;12.80;99.90
31133;DHT22;17779;50.942;4.026;2022-11-11T15:57:24;12.50;99.90
31133;DHT22;17779;50.942;4.026;2022-11-11T15:59:51;12.50;99.90
31133;DHT22;17779;50.942;4.026;2022-11-11T16:02:18;12.30;99.90
31133;DHT22;17779;50.942;4.026;2022-11-11T16:04:47;12.30;99.90
31133;DHT22;17779;50.942;4.026;2022-11-11T16:07:19;12.20;99.90
31133;DHT22;17779;50.942;4.026;2022-11-11T16:09:45;12.10;99.90
31133;DHT22;17779;50.942;4.026;2022-11-11T16:12:11;12.20;99.90
31133;DHT22;17779;50.942;4.026;2022-11-11T16:14:39;12.20;99.90
31133;DHT22;17779;50.942;4.026;2022-11-11T16:17:08;12.10;99.90
31133;DHT22;17779;50.942;4.026;2022-11-11T16:19:35;12.30;99.90
31133;DHT22;17779;50.942;4.026;2022-11-11T16:24:32;12.10;99.90
31133;DHT22;17779;50.942;4.026;2022-11-11T16:26:59;12.00;99.90
31133;DHT22;17779;50.942;4.026;2022-11-11T16:29:29;11.90;99.90
31133;DHT22;17779;50.942;4.026;2022-11-11T16:31:57;12.00;99.90
31133;DHT22;17779;50.942;4.026;2022-11-11T16:34:29;11.80;99.90
31133;DHT22;17779;50.942;4.026;2022-11-11T16:36:57;11.80;99.90
31133;DHT22;17779;50.942;4.026;2022-11-11T16:39:24;11.90;99.90
31133;DHT22;17779;50.942;4.026;2022-11-11T16:41:57;11.80;99.90
31133;DHT22;17779;50.942;4.026;2022-11-11T16:44:28;11.80;99.90
31133;DHT22;17779;50.942;4.026;2022-11-11T16:46:57;11.80;99.90
31133;DHT22;17779;50.942;4.026;2022-11-11T16:49:27;11.80;99.90
31133;DHT22;17779;50.942;4.026;2022-11-11T16:51:53;11.80;99.90
31133;DHT22;17779;50.942;4.026;2022-11-11T16:54:20;11.70;99.90
31133;DHT22;17779;50.942;4.026;2022-11-11T16:56:56;11.70;99.90
31133;DHT22;17779;50.942;4.026;2022-11-11T16:59:32;11.80;99.90
31133;DHT22;17779;50.942;4.026;2022-11-11T17:01:59;11.90;99.90
31133;DHT22;17779;50.942;4.026;2022-11-11T17:04:24;12.00;99.90
31133;DHT22;17779;50.942;4.026;2022-11-11T17:06:54;12.00;99.90
31133;DHT22;17779;50.942;4.026;2022-11-11T17:11:58;12.20;99.90
31133;DHT22;17779;50.942;4.026;2022-11-11T17:14:25;12.20;99.90
31133;DHT22;17779;50.942;4.026;2022-11-11T17:16:52;12.10;99.90
31133;DHT22;17779;50.942;4.026;2022-11-11T17:19:18;12.10;99.90
31133;DHT22;17779;50.942;4.026;2022-11-11T17:21:46;12.00;99.90
31133;DHT22;17779;50.942;4.026;2022-11-11T17:24:12;12.00;99.90
31133;DHT22;17779;50.942;4.026;2022-11-11T17:26:39;11.90;99.90
31133;DHT22;17779;50.942;4.026;2022-11-11T17:29:05;11.90;99.90
31133;DHT22;17779;50.942;4.026;2022-11-11T17:31:31;11.90;99.90
31133;DHT22;17779;50.942;4.026;2022-11-11T17:33:56;11.90;99.90
31133;DHT22;17779;50.942;4.026;2022-11-11T17:36:22;11.90;99.90
31133;DHT22;17779;50.942;4.026;2022-11-11T17:38:47;11.80;99.90
31133;DHT22;17779;50.942;4.026;2022-11-11T17:41:13;11.70;99.90
31133;DHT22;17779;50.942;4.026;2022-11-11T17:43:39;11.60;99.90
31133;DHT22;17779;50.942;4.026;2022-11-11T17:46:05;11.40;99.90
31133;DHT22;17779;50.942;4.026;2022-11-11T17:48:30;11.30;99.90
31133;DHT22;17779;50.942;4.026;2022-11-11T17:50:56;11.30;99.90
31133;DHT22;17779;50.942;4.026;2022-11-11T17:53:22;11.20;99.90
31133;DHT22;17779;50.942;4.026;2022-11-11T17:55:48;11.00;99.90
31133;DHT22;17779;50.942;4.026;2022-11-11T17:58:15;10.90;99.90
31133;DHT22;17779;50.942;4.026;2022-11-11T18:00:40;10.90;99.90
31133;DHT22;17779;50.942;4.026;2022-11-11T18:03:06;11.00;99.90
31133;DHT22;17779;50.942;4.026;2022-11-11T18:05:32;11.10;99.90
31133;DHT22;17779;50.942;4.026;2022-11-11T18:07:58;11.20;99.90
31133;DHT22;17779;50.942;4.026;2022-11-11T18:10:23;11.10;99.90